sensor_id;sensor_type;location;lat;lon;timestamp;temperature;humidity
33943;DHT22;66763;47.856;17.462;2023-12-29T00:01:16;11.60;53.20
33943;DHT22;66763;47.856;17.462;2023-12-29T00:03:41;11.60;53.30
33943;DHT22;66763;47.856;17.462;2023-12-29T00:06:07;11.60;53.90
33943;DHT22;66763;47.856;17.462;2023-12-29T00:08:32;11.60;53.30
33943;DHT22;66763;47.856;17.462;2023-12-29T00:10:58;11.50;53.20
33943;DHT22;66763;47.856;17.462;2023-12-29T00:13:24;11.50;53.20
33943;DHT22;66763;47.856;17.462;2023-12-29T00:15:53;11.60;53.30
33943;DHT22;66763;47.856;17.462;2023-12-29T00:18:19;11.60;53.30
33943;DHT22;66763;47.856;17.462;2023-12-29T00:20:44;11.50;53.30
33943;DHT22;66763;47.856;17.462;2023-12-29T00:23:10;11.60;52.80
33943;DHT22;66763;47.856;17.462;2023-12-29T00:25:36;11.50;52.80
33943;DHT22;66763;47.856;17.462;2023-12-29T00:28:02;11.50;53.30
33943;DHT22;66763;47.856;17.462;2023-12-29T00:30:27;11.50;53.30
33943;DHT22;66763;47.856;17.462;2023-12-29T00:32:55;11.60;54.00
33943;DHT22;66763;47.856;17.462;2023-12-29T00:35:20;11.50;53.30
33943;DHT22;66763;47.856;17.462;2023-12-29T00:37:46;11.50;53.30
33943;DHT22;66763;47.856;17.462;2023-12-29T00:40:11;11.50;53.30
33943;DHT22;66763;47.856;17.462;2023-12-29T00:42:37;11.60;53.30
33943;DHT22;66763;47.856;17.462;2023-12-29T00:45:03;11.50;53.30
33943;DHT22;66763;47.856;17.462;2023-12-29T00:47:28;11.50;53.30
33943;DHT22;66763;47.856;17.462;2023-12-29T00:49:54;11.40;53.30
33943;DHT22;66763;47.856;17.462;2023-12-29T00:52:19;11.50;53.30
33943;DHT22;66763;47.856;17.462;2023-12-29T00:54:45;11.50;53.30
33943;DHT22;66763;47.856;17.462;2023-12-29T00:57:10;11.50;53.30
33943;DHT22;66763;47.856;17.462;2023-12-29T00:59:39;11.50;53.30
33943;DHT22;66763;47.856;17.462;2023-12-29T01:02:09;11.50;53.30
33943;DHT22;66763;47.856;17.462;2023-12-29T01:04:37;11.50;53.30
33943;DHT22;66763;47.856;17.462;2023-12-29T01:07:02;11.50;53.30
33943;DHT22;66763;47.856;17.462;2023-12-29T01:09:28;11.50;53.30
33943;DHT22;66763;47.856;17.462;2023-12-29T01:11:53;11.50;53.30
33943;DHT22;66763;47.856;17.462;2023-12-29T01:14:19;11.40;53.30
33943;DHT22;66763;47.856;17.462;2023-12-29T01:16:45;11.40;53.30
33943;DHT22;66763;47.856;17.462;2023-12-29T01:19:10;11.50;53.30
33943;DHT22;66763;47.856;17.462;2023-12-29T01:21:37;11.50;52.80
33943;DHT22;66763;47.856;17.462;2023-12-29T01:24:02;11.50;53.30
33943;DHT22;66763;47.856;17.462;2023-12-29T01:26:38;11.30;52.70
33943;DHT22;66763;47.856;17.462;2023-12-29T01:29:04;11.40;53.30
33943;DHT22;66763;47.856;17.462;2023-12-29T01:31:30;11.40;53.30
33943;DHT22;66763;47.856;17.462;2023-12-29T01:33:55;11.30;52.70
33943;DHT22;66763;47.856;17.462;2023-12-29T01:36:21;11.40;53.30
33943;DHT22;66763;47.856;17.462;2023-12-29T01:38:46;11.40;53.30
33943;DHT22;66763;47.856;17.462;2023-12-29T01:41:12;11.40;53.30
33943;DHT22;66763;47.856;17.462;2023-12-29T01:46:22;11.50;52.80
33943;DHT22;66763;47.856;17.462;2023-12-29T01:48:48;11.50;53.40
33943;DHT22;66763;47.856;17.462;2023-12-29T01:51:14;11.40;53.30
33943;DHT22;66763;47.856;17.462;2023-12-29T01:53:40;11.40;53.30
33943;DHT22;66763;47.856;17.462;2023-12-29T01:56:05;11.40;53.30
33943;DHT22;66763;47.856;17.462;2023-12-29T01:58:32;11.40;53.30
33943;DHT22;66763;47.856;17.462;2023-12-29T02:00:57;11.40;53.30
33943;DHT22;66763;47.856;17.462;2023-12-29T02:03:23;11.40;53.20
33943;DHT22;66763;47.856;17.462;2023-12-29T02:05:48;11.40;53.30
33943;DHT22;66763;47.856;17.462;2023-12-29T02:08:15;11.40;53.20
33943;DHT22;66763;47.856;17.462;2023-12-29T02:10:40;11.40;53.30
33943;DHT22;66763;47.856;17.462;2023-12-29T02:13:06;11.30;52.70
33943;DHT22;66763;47.856;17.462;2023-12-29T02:15:31;11.40;53.30
33943;DHT22;66763;47.856;17.462;2023-12-29T02:18:00;11.40;53.20
33943;DHT22;66763;47.856;17.462;2023-12-29T02:20:27;11.50;53.30
33943;DHT22;66763;47.856;17.462;2023-12-29T02:22:53;11.40;52.70
33943;DHT22;66763;47.856;17.462;2023-12-29T02:25:18;11.30;52.70
33943;DHT22;66763;47.856;17.462;2023-12-29T02:28:26;11.40;53.30
33943;DHT22;66763;47.856;17.462;2023-12-29T02:30:36;11.40;53.20
33943;DHT22;66763;47.856;17.462;2023-12-29T02:33:04;11.40;53.20
33943;DHT22;66763;47.856;17.462;2023-12-29T02:35:32;11.40;53.20
33943;DHT22;66763;47.856;17.462;2023-12-29T02:37:59;11.40;53.20
33943;DHT22;66763;47.856;17.462;2023-12-29T02:40:25;11.40;53.20
33943;DHT22;66763;47.856;17.462;2023-12-29T02:42:50;11.40;53.20
33943;DHT22;66763;47.856;17.462;2023-12-29T02:45:16;11.40;53.20
33943;DHT22;66763;47.856;17.462;2023-12-29T02:47:42;11.40;53.10
33943;DHT22;66763;47.856;17.462;2023-12-29T02:50:08;11.40;53.10
33943;DHT22;66763;47.856;17.462;2023-12-29T02:52:34;11.30;53.10
33943;DHT22;66763;47.856;17.462;2023-12-29T02:54:59;11.40;53.20
33943;DHT22;66763;47.856;17.462;2023-12-29T02:57:25;11.30;52.60
33943;DHT22;66763;47.856;17.462;2023-12-29T02:59:50;11.40;53.10
33943;DHT22;66763;47.856;17.462;2023-12-29T03:02:16;11.40;53.10
33943;DHT22;66763;47.856;17.462;2023-12-29T03:04:41;11.40;53.10
33943;DHT22;66763;47.856;17.462;2023-12-29T03:07:07;11.40;53.10
33943;DHT22;66763;47.856;17.462;2023-12-29T03:09:32;11.40;53.10
33943;DHT22;66763;47.856;17.462;2023-12-29T03:11:58;11.40;53.10
33943;DHT22;66763;47.856;17.462;2023-12-29T03:14:23;11.40;53.20
33943;DHT22;66763;47.856;17.462;2023-12-29T03:16:48;11.40;53.10
33943;DHT22;66763;47.856;17.462;2023-12-29T03:19:14;11.40;53.10
33943;DHT22;66763;47.856;17.462;2023-12-29T03:21:39;11.40;53.10
33943;DHT22;66763;47.856;17.462;2023-12-29T03:24:05;11.40;53.10
33943;DHT22;66763;47.856;17.462;2023-12-29T03:26:30;11.40;52.60
33943;DHT22;66763;47.856;17.462;2023-12-29T03:28:56;11.40;53.20
33943;DHT22;66763;47.856;17.462;2023-12-29T03:31:21;11.30;53.10
33943;DHT22;66763;47.856;17.462;2023-12-29T03:33:47;11.30;53.10
33943;DHT22;66763;47.856;17.462;2023-12-29T03:36:12;11.30;52.60
33943;DHT22;66763;47.856;17.462;2023-12-29T03:38:38;11.40;53.10
33943;DHT22;66763;47.856;17.462;2023-12-29T03:41:03;11.40;53.10
33943;DHT22;66763;47.856;17.462;2023-12-29T03:43:29;11.40;53.00
33943;DHT22;66763;47.856;17.462;2023-12-29T03:45:54;11.40;53.10
33943;DHT22;66763;47.856;17.462;2023-12-29T03:48:20;11.40;53.10
33943;DHT22;66763;47.856;17.462;2023-12-29T03:50:45;11.30;53.10
33943;DHT22;66763;47.856;17.462;2023-12-29T03:53:11;11.30;53.00
33943;DHT22;66763;47.856;17.462;2023-12-29T03:55:36;11.40;53.10
33943;DHT22;66763;47.856;17.462;2023-12-29T03:58:02;11.30;53.00
33943;DHT22;66763;47.856;17.462;2023-12-29T04:00:28;11.40;53.60
33943;DHT22;66763;47.856;17.462;2023-12-29T04:02:53;11.40;53.00
33943;DHT22;66763;47.856;17.462;2023-12-29T04:05:19;11.50;53.00
33943;DHT22;66763;47.856;17.462;2023-12-29T04:07:45;11.50;52.90
33943;DHT22;66763;47.856;17.462;2023-12-29T04:10:10;11.70;52.30
33943;DHT22;66763;47.856;17.462;2023-12-29T04:12:36;11.80;52.70
33943;DHT22;66763;47.856;17.462;2023-12-29T04:15:05;12.00;52.70
33943;DHT22;66763;47.856;17.462;2023-12-29T04:17:31;12.10;52.50
33943;DHT22;66763;47.856;17.462;2023-12-29T04:19:56;12.20;51.70
33943;DHT22;66763;47.856;17.462;2023-12-29T04:22:22;12.30;52.30
33943;DHT22;66763;47.856;17.462;2023-12-29T04:24:47;12.40;51.40
33943;DHT22;66763;47.856;17.462;2023-12-29T04:27:14;12.40;51.90
33943;DHT22;66763;47.856;17.462;2023-12-29T04:29:39;12.50;51.20
33943;DHT22;66763;47.856;17.462;2023-12-29T04:32:05;12.60;51.20
33943;DHT22;66763;47.856;17.462;2023-12-29T04:34:30;12.70;51.10
33943;DHT22;66763;47.856;17.462;2023-12-29T04:36:56;12.70;51.60
33943;DHT22;66763;47.856;17.462;2023-12-29T04:39:21;12.70;51.50
33943;DHT22;66763;47.856;17.462;2023-12-29T04:41:47;12.80;51.30
33943;DHT22;66763;47.856;17.462;2023-12-29T04:44:12;12.80;51.30
33943;DHT22;66763;47.856;17.462;2023-12-29T04:46:38;12.90;51.30
33943;DHT22;66763;47.856;17.462;2023-12-29T04:49:03;12.90;51.30
33943;DHT22;66763;47.856;17.462;2023-12-29T04:51:29;12.90;51.30
33943;DHT22;66763;47.856;17.462;2023-12-29T04:53:54;12.90;51.20
33943;DHT22;66763;47.856;17.462;2023-12-29T04:56:20;12.90;51.30
33943;DHT22;66763;47.856;17.462;2023-12-29T04:58:46;12.90;51.30
33943;DHT22;66763;47.856;17.462;2023-12-29T05:01:11;12.90;51.30
33943;DHT22;66763;47.856;17.462;2023-12-29T05:03:37;12.80;51.20
33943;DHT22;66763;47.856;17.462;2023-12-29T05:06:02;12.80;51.20
33943;DHT22;66763;47.856;17.462;2023-12-29T05:08:28;12.80;51.30
33943;DHT22;66763;47.856;17.462;2023-12-29T05:10:53;12.80;51.30
33943;DHT22;66763;47.856;17.462;2023-12-29T05:13:18;12.70;51.30
33943;DHT22;66763;47.856;17.462;2023-12-29T05:15:44;12.70;51.50
33943;DHT22;66763;47.856;17.462;2023-12-29T05:18:09;12.60;51.50
33943;DHT22;66763;47.856;17.462;2023-12-29T05:20:35;12.60;51.60
33943;DHT22;66763;47.856;17.462;2023-12-29T05:23:00;12.70;51.70
33943;DHT22;66763;47.856;17.462;2023-12-29T05:25:26;12.60;51.20
33943;DHT22;66763;47.856;17.462;2023-12-29T05:27:51;12.50;51.70
33943;DHT22;66763;47.856;17.462;2023-12-29T05:30:17;12.50;51.70
33943;DHT22;66763;47.856;17.462;2023-12-29T05:32:42;12.50;51.80
33943;DHT22;66763;47.856;17.462;2023-12-29T05:35:08;12.50;51.90
33943;DHT22;66763;47.856;17.462;2023-12-29T05:37:34;12.40;51.90
33943;DHT22;66763;47.856;17.462;2023-12-29T05:39:59;12.40;52.20
33943;DHT22;66763;47.856;17.462;2023-12-29T05:42:25;12.40;52.00
33943;DHT22;66763;47.856;17.462;2023-12-29T05:44:50;12.40;51.60
33943;DHT22;66763;47.856;17.462;2023-12-29T05:47:17;12.40;52.10
33943;DHT22;66763;47.856;17.462;2023-12-29T05:49:42;12.40;52.20
33943;DHT22;66763;47.856;17.462;2023-12-29T05:52:08;12.30;52.20
33943;DHT22;66763;47.856;17.462;2023-12-29T05:54:34;12.30;52.20
33943;DHT22;66763;47.856;17.462;2023-12-29T05:57:00;12.30;52.30
33943;DHT22;66763;47.856;17.462;2023-12-29T05:59:25;12.30;52.30
33943;DHT22;66763;47.856;17.462;2023-12-29T06:01:51;12.30;52.30
33943;DHT22;66763;47.856;17.462;2023-12-29T06:04:16;12.20;52.30
33943;DHT22;66763;47.856;17.462;2023-12-29T06:06:42;12.20;52.30
33943;DHT22;66763;47.856;17.462;2023-12-29T06:09:09;12.20;52.30
33943;DHT22;66763;47.856;17.462;2023-12-29T06:11:34;12.20;52.30
33943;DHT22;66763;47.856;17.462;2023-12-29T06:14:00;12.20;52.40
33943;DHT22;66763;47.856;17.462;2023-12-29T06:16:25;12.20;52.30
33943;DHT22;66763;47.856;17.462;2023-12-29T06:18:52;12.10;52.30
33943;DHT22;66763;47.856;17.462;2023-12-29T06:21:18;12.10;52.30
33943;DHT22;66763;47.856;17.462;2023-12-29T06:23:44;12.20;52.30
33943;DHT22;66763;47.856;17.462;2023-12-29T06:26:16;12.10;51.80
33943;DHT22;66763;47.856;17.462;2023-12-29T06:28:42;12.10;52.30
33943;DHT22;66763;47.856;17.462;2023-12-29T06:31:07;12.10;52.40
33943;DHT22;66763;47.856;17.462;2023-12-29T06:33:33;12.10;52.40
33943;DHT22;66763;47.856;17.462;2023-12-29T06:35:58;12.00;51.80
33943;DHT22;66763;47.856;17.462;2023-12-29T06:38:24;12.10;51.80
33943;DHT22;66763;47.856;17.462;2023-12-29T06:40:49;12.10;52.30
33943;DHT22;66763;47.856;17.462;2023-12-29T06:43:14;12.00;52.30
33943;DHT22;66763;47.856;17.462;2023-12-29T06:45:40;12.00;52.30
33943;DHT22;66763;47.856;17.462;2023-12-29T06:48:06;12.00;52.30
33943;DHT22;66763;47.856;17.462;2023-12-29T06:50:31;12.00;52.30
33943;DHT22;66763;47.856;17.462;2023-12-29T06:52:57;12.00;52.30
33943;DHT22;66763;47.856;17.462;2023-12-29T06:55:22;12.00;52.30
33943;DHT22;66763;47.856;17.462;2023-12-29T06:57:49;12.00;52.30
33943;DHT22;66763;47.856;17.462;2023-12-29T07:00:14;12.00;52.30
33943;DHT22;66763;47.856;17.462;2023-12-29T07:02:40;12.00;52.40
33943;DHT22;66763;47.856;17.462;2023-12-29T07:05:06;11.90;52.40
33943;DHT22;66763;47.856;17.462;2023-12-29T07:07:31;11.90;52.40
33943;DHT22;66763;47.856;17.462;2023-12-29T07:09:57;11.90;52.40
33943;DHT22;66763;47.856;17.462;2023-12-29T07:12:22;11.90;52.40
33943;DHT22;66763;47.856;17.462;2023-12-29T07:14:48;11.80;52.30
33943;DHT22;66763;47.856;17.462;2023-12-29T07:17:13;11.90;52.40
33943;DHT22;66763;47.856;17.462;2023-12-29T07:19:39;11.90;52.50
33943;DHT22;66763;47.856;17.462;2023-12-29T07:22:05;11.90;52.50
33943;DHT22;66763;47.856;17.462;2023-12-29T07:24:34;11.50;51.80
33943;DHT22;66763;47.856;17.462;2023-12-29T07:27:00;11.80;52.40
33943;DHT22;66763;47.856;17.462;2023-12-29T07:29:26;11.80;52.40
33943;DHT22;66763;47.856;17.462;2023-12-29T07:31:51;11.80;52.50
33943;DHT22;66763;47.856;17.462;2023-12-29T07:34:17;11.80;52.50
33943;DHT22;66763;47.856;17.462;2023-12-29T07:36:42;11.80;52.50
33943;DHT22;66763;47.856;17.462;2023-12-29T07:39:08;11.80;52.00
33943;DHT22;66763;47.856;17.462;2023-12-29T07:41:34;11.80;52.50
33943;DHT22;66763;47.856;17.462;2023-12-29T07:44:04;11.80;52.50
33943;DHT22;66763;47.856;17.462;2023-12-29T07:46:29;11.80;52.50
33943;DHT22;66763;47.856;17.462;2023-12-29T07:48:55;11.70;52.50
33943;DHT22;66763;47.856;17.462;2023-12-29T07:51:20;11.70;52.00
33943;DHT22;66763;47.856;17.462;2023-12-29T07:53:46;11.70;52.50
33943;DHT22;66763;47.856;17.462;2023-12-29T07:56:11;11.70;52.50
33943;DHT22;66763;47.856;17.462;2023-12-29T07:58:37;11.70;52.60
33943;DHT22;66763;47.856;17.462;2023-12-29T08:01:02;11.70;52.60
33943;DHT22;66763;47.856;17.462;2023-12-29T08:03:28;11.70;52.60
33943;DHT22;66763;47.856;17.462;2023-12-29T08:05:53;11.70;52.50
33943;DHT22;66763;47.856;17.462;2023-12-29T08:08:19;11.70;52.60
33943;DHT22;66763;47.856;17.462;2023-12-29T08:10:44;11.70;52.60
33943;DHT22;66763;47.856;17.462;2023-12-29T08:13:10;11.70;52.60
33943;DHT22;66763;47.856;17.462;2023-12-29T08:15:35;11.70;52.60
33943;DHT22;66763;47.856;17.462;2023-12-29T08:18:01;11.70;52.60
33943;DHT22;66763;47.856;17.462;2023-12-29T08:20:26;11.70;52.60
33943;DHT22;66763;47.856;17.462;2023-12-29T08:22:52;11.70;52.60
33943;DHT22;66763;47.856;17.462;2023-12-29T08:25:17;11.60;52.10
33943;DHT22;66763;47.856;17.462;2023-12-29T08:27:42;11.70;52.70
33943;DHT22;66763;47.856;17.462;2023-12-29T08:30:08;11.60;52.60
33943;DHT22;66763;47.856;17.462;2023-12-29T08:32:34;11.70;52.70
33943;DHT22;66763;47.856;17.462;2023-12-29T08:35:00;11.60;52.60
33943;DHT22;66763;47.856;17.462;2023-12-29T08:37:25;11.60;52.60
33943;DHT22;66763;47.856;17.462;2023-12-29T08:39:51;11.60;52.60
33943;DHT22;66763;47.856;17.462;2023-12-29T08:42:16;11.60;52.10
33943;DHT22;66763;47.856;17.462;2023-12-29T08:44:41;11.70;52.60
33943;DHT22;66763;47.856;17.462;2023-12-29T08:47:07;11.60;52.60
33943;DHT22;66763;47.856;17.462;2023-12-29T08:49:34;11.70;52.60
33943;DHT22;66763;47.856;17.462;2023-12-29T08:52:00;11.60;52.60
33943;DHT22;66763;47.856;17.462;2023-12-29T08:54:25;11.60;52.70
33943;DHT22;66763;47.856;17.462;2023-12-29T08:56:51;11.70;52.70
33943;DHT22;66763;47.856;17.462;2023-12-29T08:59:16;11.60;52.70
33943;DHT22;66763;47.856;17.462;2023-12-29T09:01:42;11.60;52.20
33943;DHT22;66763;47.856;17.462;2023-12-29T09:04:07;11.60;52.70
33943;DHT22;66763;47.856;17.462;2023-12-29T09:06:32;11.60;52.60
33943;DHT22;66763;47.856;17.462;2023-12-29T09:08:58;11.60;52.60
33943;DHT22;66763;47.856;17.462;2023-12-29T09:11:23;11.60;52.70
33943;DHT22;66763;47.856;17.462;2023-12-29T09:13:49;11.60;52.20
33943;DHT22;66763;47.856;17.462;2023-12-29T09:16:14;11.60;52.70
33943;DHT22;66763;47.856;17.462;2023-12-29T09:18:40;11.60;52.70
33943;DHT22;66763;47.856;17.462;2023-12-29T09:21:05;11.60;52.70
33943;DHT22;66763;47.856;17.462;2023-12-29T09:23:31;11.50;52.60
33943;DHT22;66763;47.856;17.462;2023-12-29T09:25:57;11.50;52.10
33943;DHT22;66763;47.856;17.462;2023-12-29T09:28:23;11.60;52.70
33943;DHT22;66763;47.856;17.462;2023-12-29T09:30:48;11.50;52.60
33943;DHT22;66763;47.856;17.462;2023-12-29T09:33:13;11.60;52.70
33943;DHT22;66763;47.856;17.462;2023-12-29T09:35:39;11.60;52.70
33943;DHT22;66763;47.856;17.462;2023-12-29T09:38:05;11.60;52.20
33943;DHT22;66763;47.856;17.462;2023-12-29T09:40:30;11.60;52.70
33943;DHT22;66763;47.856;17.462;2023-12-29T09:42:56;11.50;52.70
33943;DHT22;66763;47.856;17.462;2023-12-29T09:45:25;11.60;52.30
33943;DHT22;66763;47.856;17.462;2023-12-29T09:47:51;11.50;52.70
33943;DHT22;66763;47.856;17.462;2023-12-29T09:50:17;11.50;52.80
33943;DHT22;66763;47.856;17.462;2023-12-29T09:52:43;11.60;52.80
33943;DHT22;66763;47.856;17.462;2023-12-29T09:55:09;11.50;52.70
33943;DHT22;66763;47.856;17.462;2023-12-29T09:57:38;11.50;52.80
33943;DHT22;66763;47.856;17.462;2023-12-29T10:00:04;11.50;52.80
33943;DHT22;66763;47.856;17.462;2023-12-29T10:02:29;11.50;52.80
33943;DHT22;66763;47.856;17.462;2023-12-29T10:04:56;11.50;52.80
33943;DHT22;66763;47.856;17.462;2023-12-29T10:07:24;11.50;52.80
33943;DHT22;66763;47.856;17.462;2023-12-29T10:09:57;11.50;52.80
33943;DHT22;66763;47.856;17.462;2023-12-29T10:12:24;11.50;52.80
33943;DHT22;66763;47.856;17.462;2023-12-29T10:14:57;11.50;52.80
33943;DHT22;66763;47.856;17.462;2023-12-29T10:17:36;11.50;52.80
33943;DHT22;66763;47.856;17.462;2023-12-29T10:20:12;11.50;52.80
33943;DHT22;66763;47.856;17.462;2023-12-29T10:25:22;11.50;52.30
33943;DHT22;66763;47.856;17.462;2023-12-29T10:27:48;11.50;52.90
33943;DHT22;66763;47.856;17.462;2023-12-29T10:30:13;11.50;52.90
33943;DHT22;66763;47.856;17.462;2023-12-29T10:32:39;11.40;52.90
33943;DHT22;66763;47.856;17.462;2023-12-29T10:35:08;11.40;52.80
33943;DHT22;66763;47.856;17.462;2023-12-29T10:37:37;11.50;52.90
33943;DHT22;66763;47.856;17.462;2023-12-29T10:40:03;11.40;52.90
33943;DHT22;66763;47.856;17.462;2023-12-29T10:42:29;11.50;52.40
33943;DHT22;66763;47.856;17.462;2023-12-29T10:45:04;11.50;52.90
33943;DHT22;66763;47.856;17.462;2023-12-29T10:47:30;11.40;52.90
33943;DHT22;66763;47.856;17.462;2023-12-29T10:49:58;11.50;53.00
33943;DHT22;66763;47.856;17.462;2023-12-29T10:52:23;11.40;52.90
33943;DHT22;66763;47.856;17.462;2023-12-29T10:54:49;11.40;52.90
33943;DHT22;66763;47.856;17.462;2023-12-29T10:57:14;11.50;53.00
33943;DHT22;66763;47.856;17.462;2023-12-29T10:59:40;11.40;52.90
33943;DHT22;66763;47.856;17.462;2023-12-29T11:02:05;11.40;52.40
33943;DHT22;66763;47.856;17.462;2023-12-29T11:04:33;11.40;52.90
33943;DHT22;66763;47.856;17.462;2023-12-29T11:06:59;11.40;53.00
33943;DHT22;66763;47.856;17.462;2023-12-29T11:09:32;11.40;52.50
33943;DHT22;66763;47.856;17.462;2023-12-29T11:12:01;11.40;53.00
33943;DHT22;66763;47.856;17.462;2023-12-29T11:14:27;11.40;53.00
33943;DHT22;66763;47.856;17.462;2023-12-29T11:16:55;11.40;53.00
33943;DHT22;66763;47.856;17.462;2023-12-29T11:19:21;11.30;53.00
33943;DHT22;66763;47.856;17.462;2023-12-29T11:21:47;11.40;53.00
33943;DHT22;66763;47.856;17.462;2023-12-29T11:24:13;11.40;53.10
33943;DHT22;66763;47.856;17.462;2023-12-29T11:26:39;11.40;52.60
33943;DHT22;66763;47.856;17.462;2023-12-29T11:29:05;11.40;53.10
33943;DHT22;66763;47.856;17.462;2023-12-29T11:31:32;11.40;53.10
33943;DHT22;66763;47.856;17.462;2023-12-29T11:34:00;11.30;52.50
33943;DHT22;66763;47.856;17.462;2023-12-29T11:36:29;11.40;53.10
33943;DHT22;66763;47.856;17.462;2023-12-29T11:43:56;11.40;53.10
33943;DHT22;66763;47.856;17.462;2023-12-29T11:46:38;11.40;53.10
33943;DHT22;66763;47.856;17.462;2023-12-29T11:49:04;11.30;53.10
33943;DHT22;66763;47.856;17.462;2023-12-29T11:53:55;11.40;53.10
33943;DHT22;66763;47.856;17.462;2023-12-29T11:56:21;11.30;53.10
33943;DHT22;66763;47.856;17.462;2023-12-29T11:58:46;11.40;53.10
33943;DHT22;66763;47.856;17.462;2023-12-29T12:01:12;11.40;53.00
33943;DHT22;66763;47.856;17.462;2023-12-29T12:03:37;11.40;53.10
33943;DHT22;66763;47.856;17.462;2023-12-29T12:06:03;11.40;52.60
33943;DHT22;66763;47.856;17.462;2023-12-29T12:08:32;11.40;53.00
33943;DHT22;66763;47.856;17.462;2023-12-29T12:13:45;11.40;53.00
33943;DHT22;66763;47.856;17.462;2023-12-29T12:18:54;11.40;53.00
33943;DHT22;66763;47.856;17.462;2023-12-29T12:21:20;11.40;53.10
33943;DHT22;66763;47.856;17.462;2023-12-29T12:23:47;11.40;53.10
33943;DHT22;66763;47.856;17.462;2023-12-29T12:26:13;11.40;52.60
33943;DHT22;66763;47.856;17.462;2023-12-29T12:28:38;11.40;53.10
33943;DHT22;66763;47.856;17.462;2023-12-29T12:31:09;11.40;53.00
33943;DHT22;66763;47.856;17.462;2023-12-29T12:33:34;11.40;53.00
33943;DHT22;66763;47.856;17.462;2023-12-29T12:36:00;11.40;53.00
33943;DHT22;66763;47.856;17.462;2023-12-29T12:38:25;11.50;53.00
33943;DHT22;66763;47.856;17.462;2023-12-29T12:40:52;11.40;53.00
33943;DHT22;66763;47.856;17.462;2023-12-29T12:43:18;11.40;53.00
33943;DHT22;66763;47.856;17.462;2023-12-29T12:45:47;11.50;53.00
33943;DHT22;66763;47.856;17.462;2023-12-29T12:48:34;11.40;52.90
33943;DHT22;66763;47.856;17.462;2023-12-29T12:50:58;11.50;53.00
33943;DHT22;66763;47.856;17.462;2023-12-29T12:53:25;11.40;53.00
33943;DHT22;66763;47.856;17.462;2023-12-29T12:55:50;11.40;53.00
33943;DHT22;66763;47.856;17.462;2023-12-29T12:58:17;11.40;53.00
33943;DHT22;66763;47.856;17.462;2023-12-29T13:00:42;11.40;52.90
33943;DHT22;66763;47.856;17.462;2023-12-29T13:03:09;11.50;53.00
33943;DHT22;66763;47.856;17.462;2023-12-29T13:05:35;11.40;53.10
33943;DHT22;66763;47.856;17.462;2023-12-29T13:08:01;11.40;53.00
33943;DHT22;66763;47.856;17.462;2023-12-29T13:10:29;11.30;52.50
33943;DHT22;66763;47.856;17.462;2023-12-29T13:12:55;11.40;53.20
33943;DHT22;66763;47.856;17.462;2023-12-29T13:15:21;11.40;52.90
33943;DHT22;66763;47.856;17.462;2023-12-29T13:17:51;11.40;52.90
33943;DHT22;66763;47.856;17.462;2023-12-29T13:20:16;11.40;53.00
33943;DHT22;66763;47.856;17.462;2023-12-29T13:22:42;11.40;53.00
33943;DHT22;66763;47.856;17.462;2023-12-29T13:25:08;11.40;52.50
33943;DHT22;66763;47.856;17.462;2023-12-29T13:27:36;11.40;53.10
33943;DHT22;66763;47.856;17.462;2023-12-29T13:30:02;11.40;53.00
33943;DHT22;66763;47.856;17.462;2023-12-29T13:32:28;11.50;53.00
33943;DHT22;66763;47.856;17.462;2023-12-29T13:37:43;11.40;52.90
33943;DHT22;66763;47.856;17.462;2023-12-29T13:40:27;11.40;52.90
33943;DHT22;66763;47.856;17.462;2023-12-29T13:42:59;11.40;52.90
33943;DHT22;66763;47.856;17.462;2023-12-29T13:45:25;11.40;53.00
33943;DHT22;66763;47.856;17.462;2023-12-29T13:47:51;11.40;52.90
33943;DHT22;66763;47.856;17.462;2023-12-29T13:50:18;11.40;52.90
33943;DHT22;66763;47.856;17.462;2023-12-29T13:52:43;11.40;52.90
33943;DHT22;66763;47.856;17.462;2023-12-29T13:55:09;11.40;53.00
33943;DHT22;66763;47.856;17.462;2023-12-29T13:57:35;11.40;52.50
33943;DHT22;66763;47.856;17.462;2023-12-29T14:00:43;11.40;52.90
33943;DHT22;66763;47.856;17.462;2023-12-29T14:07:54;11.40;52.90
33943;DHT22;66763;47.856;17.462;2023-12-29T14:10:20;11.30;53.00
33943;DHT22;66763;47.856;17.462;2023-12-29T14:12:46;11.30;53.00
33943;DHT22;66763;47.856;17.462;2023-12-29T14:15:12;11.40;53.00
33943;DHT22;66763;47.856;17.462;2023-12-29T14:17:38;11.30;53.00
33943;DHT22;66763;47.856;17.462;2023-12-29T14:20:05;11.40;52.90
33943;DHT22;66763;47.856;17.462;2023-12-29T14:22:31;11.40;53.00
33943;DHT22;66763;47.856;17.462;2023-12-29T14:25:03;11.30;52.70
33943;DHT22;66763;47.856;17.462;2023-12-29T14:27:29;11.40;53.10
33943;DHT22;66763;47.856;17.462;2023-12-29T14:29:56;11.40;53.10
33943;DHT22;66763;47.856;17.462;2023-12-29T14:32:21;11.40;53.20
33943;DHT22;66763;47.856;17.462;2023-12-29T14:34:48;11.50;53.00
33943;DHT22;66763;47.856;17.462;2023-12-29T14:37:20;11.60;52.80
33943;DHT22;66763;47.856;17.462;2023-12-29T14:39:49;11.60;52.90
33943;DHT22;66763;47.856;17.462;2023-12-29T14:42:15;11.90;53.00
33943;DHT22;66763;47.856;17.462;2023-12-29T14:44:41;12.00;52.80
33943;DHT22;66763;47.856;17.462;2023-12-29T14:47:06;12.00;52.70
33943;DHT22;66763;47.856;17.462;2023-12-29T14:49:32;12.10;52.50
33943;DHT22;66763;47.856;17.462;2023-12-29T14:51:57;12.20;52.30
33943;DHT22;66763;47.856;17.462;2023-12-29T14:54:23;12.40;52.20
33943;DHT22;66763;47.856;17.462;2023-12-29T14:56:48;12.40;52.10
33943;DHT22;66763;47.856;17.462;2023-12-29T14:59:14;12.50;51.50
33943;DHT22;66763;47.856;17.462;2023-12-29T15:01:39;12.50;51.90
33943;DHT22;66763;47.856;17.462;2023-12-29T15:04:05;12.60;51.90
33943;DHT22;66763;47.856;17.462;2023-12-29T15:06:30;12.70;51.80
33943;DHT22;66763;47.856;17.462;2023-12-29T15:08:56;12.70;51.70
33943;DHT22;66763;47.856;17.462;2023-12-29T15:11:21;12.70;51.70
33943;DHT22;66763;47.856;17.462;2023-12-29T15:13:47;12.80;51.60
33943;DHT22;66763;47.856;17.462;2023-12-29T15:16:12;12.80;51.60
33943;DHT22;66763;47.856;17.462;2023-12-29T15:18:38;12.80;51.60
33943;DHT22;66763;47.856;17.462;2023-12-29T15:21:03;12.80;51.50
33943;DHT22;66763;47.856;17.462;2023-12-29T15:23:29;12.80;51.00
33943;DHT22;66763;47.856;17.462;2023-12-29T15:25:54;12.80;51.00
33943;DHT22;66763;47.856;17.462;2023-12-29T15:28:20;12.90;51.60
33943;DHT22;66763;47.856;17.462;2023-12-29T15:30:47;12.80;51.50
33943;DHT22;66763;47.856;17.462;2023-12-29T15:33:12;12.80;51.50
33943;DHT22;66763;47.856;17.462;2023-12-29T15:35:38;12.80;51.50